createdAt,value
2017-10-25T00:01:52.414Z,67.01
2017-10-25T00:04:18.767Z,67.62
2017-10-25T00:06:45.161Z,67.90
2017-10-25T00:09:11.564Z,67.83
2017-10-25T00:11:38.653Z,68.03
2017-10-25T00:14:05.202Z,68.27
2017-10-25T00:16:31.709Z,68.01
2017-10-25T00:18:58.046Z,67.74
2017-10-25T00:21:24.400Z,67.36
2017-10-25T00:23:50.903Z,67.48
2017-10-25T00:26:17.233Z,67.20
2017-10-25T00:28:43.629Z,67.27
2017-10-25T00:31:10.747Z,67.18
2017-10-25T00:33:37.050Z,66.97
2017-10-25T00:36:03.402Z,67.43
2017-10-25T00:38:29.846Z,67.35
2017-10-25T00:40:56.177Z,67.68
2017-10-25T00:43:22.447Z,67.82
2017-10-25T00:45:49.894Z,67.90
2017-10-25T00:48:17.007Z,68.10
2017-10-25T00:50:43.367Z,68.46
2017-10-25T00:53:09.745Z,68.22
2017-10-25T00:55:36.094Z,68.36
2017-10-25T00:58:02.484Z,68.41
2017-10-25T01:00:29.747Z,68.11
2017-10-25T01:02:56.122Z,67.90
2017-10-25T01:05:22.540Z,67.83
2017-10-25T01:07:48.908Z,67.35
2017-10-25T01:10:15.323Z,67.66
2017-10-25T01:12:41.718Z,67.08
2017-10-25T01:15:08.035Z,66.85
2017-10-25T01:17:35.129Z,66.20
2017-10-25T01:20:02.355Z,66.67
2017-10-25T01:22:28.888Z,66.40
2017-10-25T01:24:55.223Z,66.49
2017-10-25T01:27:21.574Z,66.50
2017-10-25T01:29:47.980Z,66.27
2017-10-25T01:32:14.465Z,66.26
2017-10-25T01:34:40.757Z,66.26
2017-10-25T01:37:07.062Z,66.41
2017-10-25T01:39:33.459Z,66.51
2017-10-25T01:41:59.777Z,67.35
2017-10-25T01:44:26.339Z,68.05
2017-10-25T01:46:52.637Z,67.96
2017-10-25T01:49:18.929Z,68.40
2017-10-25T01:51:45.285Z,67.98
2017-10-25T01:54:11.604Z,68.22
2017-10-25T01:56:37.953Z,68.92
2017-10-25T01:59:04.367Z,69.01
2017-10-25T02:01:30.725Z,69.75
2017-10-25T02:03:57.130Z,69.90
2017-10-25T02:06:23.482Z,70.27
2017-10-25T02:08:49.798Z,70.61
2017-10-25T02:11:16.173Z,73.36
2017-10-25T02:13:42.476Z,75.80
2017-10-25T02:16:08.792Z,76.39
2017-10-25T02:18:35.153Z,76.96
2017-10-25T02:21:01.512Z,77.45
2017-10-25T02:23:28.606Z,77.99
2017-10-25T02:25:54.927Z,78.48
2017-10-25T02:28:21.266Z,78.69
2017-10-25T02:30:47.612Z,78.50
2017-10-25T02:33:13.907Z,78.53
2017-10-25T02:35:41.040Z,79.30
2017-10-25T02:38:08.111Z,79.87
2017-10-25T02:40:35.155Z,79.88
2017-10-25T02:43:02.337Z,80.47
2017-10-25T02:45:28.769Z,80.60
2017-10-25T02:47:55.146Z,81.13
2017-10-25T02:50:21.548Z,80.77
2017-10-25T02:52:47.872Z,80.39
2017-10-25T02:55:14.203Z,79.77
2017-10-25T02:57:40.573Z,79.43
2017-10-25T03:00:06.933Z,79.12
2017-10-25T03:02:33.348Z,79.10
2017-10-25T03:05:00.420Z,78.92
2017-10-25T03:07:26.789Z,78.54
2017-10-25T03:09:53.170Z,78.20
2017-10-25T03:12:20.224Z,77.71
2017-10-25T03:14:46.670Z,77.27
2017-10-25T03:17:13.050Z,76.94
2017-10-25T03:19:46.443Z,76.54
2017-10-25T03:22:12.861Z,76.13
2017-10-25T03:24:39.261Z,76.84
2017-10-25T03:27:05.597Z,77.15
2017-10-25T03:29:31.917Z,77.58
2017-10-25T03:31:58.560Z,77.85
2017-10-25T03:34:24.861Z,77.89
2017-10-25T03:36:51.980Z,77.64
2017-10-25T03:39:18.390Z,77.70
2017-10-25T03:41:44.739Z,77.71
2017-10-25T03:44:11.064Z,77.71
2017-10-25T03:46:38.599Z,77.12
2017-10-25T03:49:04.942Z,76.20
2017-10-25T03:51:31.324Z,75.58
2017-10-25T03:53:57.743Z,75.73
2017-10-25T03:56:24.094Z,75.14
2017-10-25T03:58:50.448Z,74.77
2017-10-25T04:01:17.576Z,74.96
2017-10-25T04:03:43.919Z,75.06
2017-10-25T04:06:11.040Z,74.82
2017-10-25T04:08:38.104Z,75.26
2017-10-25T04:11:04.458Z,74.86
2017-10-25T04:13:31.569Z,74.53
2017-10-25T04:15:58.023Z,74.45
2017-10-25T04:18:25.176Z,74.51
2017-10-25T04:20:52.351Z,75.17
2017-10-25T04:23:18.795Z,75.50
2017-10-25T04:25:45.136Z,75.77
2017-10-25T04:28:11.470Z,75.71
2017-10-25T04:30:37.791Z,76.27
2017-10-25T04:33:04.244Z,76.76
2017-10-25T04:35:30.690Z,75.77
2017-10-25T04:37:57.096Z,75.92
2017-10-25T04:40:23.485Z,76.21
2017-10-25T04:42:50.618Z,75.29
2017-10-25T04:45:17.060Z,75.29
2017-10-25T04:47:43.447Z,75.46
2017-10-25T04:50:09.766Z,75.65
2017-10-25T04:52:36.136Z,76.14
2017-10-25T04:55:02.553Z,75.67
2017-10-25T04:57:28.936Z,75.80
2017-10-25T04:59:56.049Z,75.99
2017-10-25T05:02:22.373Z,75.87
2017-10-25T05:04:48.861Z,75.64
2017-10-25T05:07:15.265Z,75.75
2017-10-25T05:09:41.684Z,75.86
2017-10-25T05:12:08.213Z,75.86
2017-10-25T05:14:34.643Z,75.97
2017-10-25T05:17:01.045Z,75.02
2017-10-25T05:19:27.561Z,75.42
2017-10-25T05:21:54.023Z,75.49
2017-10-25T05:24:20.452Z,75.50
2017-10-25T05:26:46.873Z,74.77
2017-10-25T05:29:13.972Z,74.16
2017-10-25T05:31:40.463Z,73.93
2017-10-25T05:34:06.794Z,73.73
2017-10-25T05:36:33.230Z,73.78
2017-10-25T05:38:59.587Z,73.70
2017-10-25T05:41:25.968Z,73.73
2017-10-25T05:43:52.356Z,73.42
2017-10-25T05:46:18.722Z,73.63
2017-10-25T05:48:45.138Z,73.26
2017-10-25T05:51:11.443Z,72.77
2017-10-25T05:53:37.836Z,72.77
2017-10-25T05:56:04.177Z,72.89
2017-10-25T05:58:30.531Z,72.81
2017-10-25T06:00:56.829Z,72.47
2017-10-25T06:03:23.891Z,72.69
2017-10-25T06:05:50.969Z,72.58
2017-10-25T06:08:17.285Z,72.88
2017-10-25T06:10:43.775Z,72.43
2017-10-25T06:13:10.153Z,71.32
2017-10-25T06:15:36.438Z,71.95
2017-10-25T06:18:02.726Z,71.73
2017-10-25T06:20:29.184Z,72.07
2017-10-25T06:22:55.534Z,71.85
2017-10-25T06:25:21.818Z,71.03
2017-10-25T06:27:48.170Z,70.84
2017-10-25T06:30:14.459Z,71.05
2017-10-25T06:32:40.739Z,70.83
2017-10-25T06:35:07.202Z,70.30
2017-10-25T06:37:34.293Z,70.25
2017-10-25T06:40:00.762Z,69.65
2017-10-25T06:42:27.064Z,70.46
2017-10-25T06:45:00.305Z,70.33
2017-10-25T06:47:26.587Z,70.00
2017-10-25T06:49:52.890Z,69.73
2017-10-25T06:52:19.890Z,70.45
2017-10-25T06:54:46.199Z,71.61
2017-10-25T06:57:12.527Z,71.74
2017-10-25T06:59:38.829Z,70.93
2017-10-25T07:02:05.309Z,70.53
2017-10-25T07:04:31.606Z,70.54
2017-10-25T07:06:57.981Z,70.50
2017-10-25T07:09:24.282Z,70.76
2017-10-25T07:11:50.621Z,70.49
2017-10-25T07:14:17.025Z,69.90
2017-10-25T07:16:43.308Z,69.39
2017-10-25T07:19:10.376Z,69.05
2017-10-25T07:21:36.802Z,69.03
2017-10-25T07:24:03.176Z,68.17
2017-10-25T07:26:29.552Z,68.64
2017-10-25T07:28:55.837Z,68.81
2017-10-25T07:31:22.146Z,68.90
2017-10-25T07:33:49.218Z,68.59
2017-10-25T07:36:15.840Z,68.75
2017-10-25T07:38:42.848Z,68.82
2017-10-25T07:41:09.142Z,68.94
2017-10-25T07:43:35.402Z,68.75
2017-10-25T07:46:01.788Z,68.44
2017-10-25T07:48:28.125Z,68.18
2017-10-25T07:50:54.419Z,67.90
2017-10-25T07:53:20.750Z,67.93
2017-10-25T07:55:47.118Z,68.61
2017-10-25T07:58:13.482Z,68.54
2017-10-25T08:00:39.821Z,68.55
2017-10-25T08:03:06.169Z,68.80
2017-10-25T08:05:32.548Z,68.62
2017-10-25T08:07:58.984Z,68.44
2017-10-25T08:10:25.450Z,68.49
2017-10-25T08:12:52.066Z,68.05
2017-10-25T08:15:18.405Z,68.30
2017-10-25T08:17:44.718Z,68.19
2017-10-25T08:20:11.653Z,68.17
2017-10-25T08:22:38.778Z,67.44
2017-10-25T08:25:05.165Z,67.52
2017-10-25T08:27:31.443Z,68.03
2017-10-25T08:29:57.803Z,68.46
2017-10-25T08:32:24.166Z,68.59
2017-10-25T08:34:50.462Z,68.29
2017-10-25T08:37:17.771Z,67.87
2017-10-25T08:39:44.118Z,67.81
2017-10-25T08:42:10.796Z,67.22
2017-10-25T08:44:37.167Z,67.23
2017-10-25T08:47:03.533Z,67.69
2017-10-25T08:49:29.910Z,67.12
2017-10-25T08:51:56.760Z,67.33
2017-10-25T08:54:23.117Z,67.27
2017-10-25T08:56:49.540Z,66.98
2017-10-25T08:59:17.573Z,66.23
2017-10-25T09:01:44.040Z,65.39
2017-10-25T09:04:10.481Z,65.48
2017-10-25T09:06:37.345Z,64.97
2017-10-25T09:09:03.738Z,63.80
2017-10-25T09:11:30.079Z,63.93
2017-10-25T09:13:56.394Z,63.43
2017-10-25T09:16:22.991Z,62.44
2017-10-25T09:18:50.116Z,62.98
2017-10-25T09:21:16.422Z,61.92
2017-10-25T09:23:43.251Z,60.29
2017-10-25T09:26:09.650Z,59.42
2017-10-25T09:28:36.735Z,59.81
2017-10-25T09:31:03.054Z,60.66
2017-10-25T09:33:29.410Z,59.92
2017-10-25T09:35:55.752Z,61.57
2017-10-25T09:38:22.076Z,60.62
2017-10-25T09:40:48.462Z,59.90
2017-10-25T09:43:15.496Z,59.64
2017-10-25T09:45:42.909Z,59.32
2017-10-25T09:48:09.939Z,59.04
2017-10-25T09:50:36.392Z,57.68
2017-10-25T09:53:02.737Z,57.33
2017-10-25T09:55:29.099Z,56.82
2017-10-25T09:57:56.152Z,56.65
2017-10-25T10:00:23.302Z,56.26
2017-10-25T10:02:50.420Z,56.78
2017-10-25T10:05:16.742Z,57.68
2017-10-25T10:07:43.074Z,57.71
2017-10-25T10:10:09.624Z,58.15
2017-10-25T10:12:35.979Z,58.45
2017-10-25T10:15:03.195Z,59.28
2017-10-25T10:17:29.651Z,59.15
2017-10-25T10:19:56.037Z,58.58
2017-10-25T10:22:22.535Z,59.22
2017-10-25T10:24:49.653Z,58.93
2017-10-25T10:27:15.947Z,58.19
2017-10-25T10:29:42.373Z,56.92
2017-10-25T10:32:08.611Z,55.96
2017-10-25T10:34:34.995Z,55.75
2017-10-25T10:37:01.296Z,56.01
2017-10-25T10:39:28.439Z,55.79
2017-10-25T10:41:54.929Z,56.34
2017-10-25T10:44:21.537Z,56.48
2017-10-25T10:46:47.926Z,55.97
2017-10-25T10:49:15.298Z,56.47
2017-10-25T10:51:41.955Z,55.18
2017-10-25T10:54:08.348Z,55.44
2017-10-25T10:56:34.741Z,55.55
2017-10-25T10:59:01.181Z,54.63
2017-10-25T11:01:27.544Z,54.51
2017-10-25T11:03:53.918Z,55.53
2017-10-25T11:06:20.338Z,54.17
2017-10-25T11:08:46.884Z,53.29
2017-10-25T11:11:13.388Z,53.84
2017-10-25T11:13:39.823Z,54.22
2017-10-25T11:16:06.207Z,53.93
2017-10-25T11:18:32.982Z,53.96
2017-10-25T11:20:59.354Z,54.75
2017-10-25T11:23:25.674Z,55.66
2017-10-25T11:25:52.103Z,56.18
2017-10-25T11:28:18.574Z,55.25
2017-10-25T11:30:45.071Z,54.75
2017-10-25T11:33:11.391Z,54.96
2017-10-25T11:35:37.778Z,54.55
2017-10-25T11:38:04.245Z,52.35
2017-10-25T11:40:30.669Z,51.72
2017-10-25T11:42:57.892Z,51.18
2017-10-25T11:45:24.305Z,48.79
2017-10-25T11:47:50.766Z,49.32
2017-10-25T11:50:17.315Z,49.64
2017-10-25T11:52:44.432Z,48.97
2017-10-25T11:55:12.019Z,46.10
2017-10-25T11:57:38.482Z,47.34
2017-10-25T12:00:04.940Z,48.48
2017-10-25T12:02:31.420Z,48.59
2017-10-25T12:04:57.810Z,49.22
2017-10-25T12:07:24.157Z,50.54
2017-10-25T12:09:50.498Z,51.97
2017-10-25T12:12:16.950Z,51.95
2017-10-25T12:14:43.412Z,52.29
2017-10-25T12:17:10.465Z,52.19
2017-10-25T12:19:36.750Z,50.81
2017-10-25T12:22:03.051Z,52.39
2017-10-25T12:24:29.613Z,51.95
2017-10-25T12:26:55.916Z,51.74
2017-10-25T12:29:23.648Z,52.13
2017-10-25T12:31:50.749Z,50.43
2017-10-25T12:34:17.117Z,50.27
2017-10-25T12:36:44.191Z,47.50
2017-10-25T12:39:10.532Z,44.47
2017-10-25T12:41:36.900Z,40.62
2017-10-25T12:44:03.259Z,41.07
2017-10-25T12:46:30.415Z,43.54
2017-10-25T12:48:57.525Z,42.70
2017-10-25T12:51:23.853Z,39.76
2017-10-25T12:53:50.190Z,38.29
2017-10-25T12:56:17.394Z,42.96
2017-10-25T12:58:43.774Z,44.23
2017-10-25T13:01:10.268Z,44.45
2017-10-25T13:03:36.555Z,43.20
2017-10-25T13:06:02.973Z,39.60
2017-10-25T13:08:29.272Z,32.60
2017-10-25T13:11:17.429Z,33.69
2017-10-25T13:17:04.613Z,31.51
2017-10-25T13:19:31.744Z,29.44
2017-10-25T13:21:58.094Z,27.54
2017-10-25T13:24:24.576Z,29.50
2017-10-25T13:26:50.990Z,32.32
2017-10-25T13:29:17.471Z,36.11
2017-10-25T13:31:44.729Z,36.61
2017-10-25T13:34:11.961Z,34.10
2017-10-25T13:36:38.345Z,31.30
2017-10-25T13:39:05.645Z,30.56
2017-10-25T13:41:32.227Z,32.36
2017-10-25T13:43:59.487Z,33.25
2017-10-25T13:46:25.787Z,31.48
2017-10-25T13:48:52.194Z,32.96
2017-10-25T13:51:18.671Z,34.69
2017-10-25T13:53:45.071Z,37.17
2017-10-25T13:56:11.556Z,39.73
2017-10-25T13:58:38.607Z,41.62
2017-10-25T14:01:05.785Z,42.94
2017-10-25T14:03:32.334Z,44.25
2017-10-25T14:05:58.675Z,45.88
2017-10-25T14:08:25.084Z,48.18
2017-10-25T14:10:51.596Z,48.98
2017-10-25T14:13:18.734Z,49.80
2017-10-25T14:15:45.772Z,49.65
2017-10-25T14:18:13.028Z,46.71
2017-10-25T14:20:40.086Z,44.97
2017-10-25T14:23:07.149Z,45.20
2017-10-25T14:25:33.492Z,46.94
2017-10-25T14:28:18.575Z,48.12
2017-10-25T14:30:45.062Z,48.83
2017-10-25T14:33:11.416Z,48.51
2017-10-25T14:35:37.966Z,44.70
2017-10-25T14:38:04.286Z,44.75
2017-10-25T14:40:30.630Z,46.47
2017-10-25T14:42:56.988Z,47.17
2017-10-25T14:45:23.443Z,46.64
2017-10-25T14:47:49.810Z,48.02
2017-10-25T14:50:16.191Z,49.93
2017-10-25T14:52:42.618Z,50.73
2017-10-25T14:55:09.047Z,51.57
2017-10-25T14:57:35.447Z,51.81
2017-10-25T15:00:01.839Z,52.67
2017-10-25T15:02:28.218Z,53.21
2017-10-25T15:04:54.717Z,53.77
2017-10-25T15:07:21.904Z,54.02
2017-10-25T15:09:48.322Z,54.34
2017-10-25T15:12:15.486Z,55.35
2017-10-25T15:14:42.797Z,55.44
2017-10-25T15:17:09.964Z,56.53
2017-10-25T15:19:36.362Z,56.62
2017-10-25T15:22:02.804Z,56.14
2017-10-25T15:24:29.257Z,55.68
2017-10-25T15:26:56.542Z,55.93
2017-10-25T15:29:22.902Z,56.59
2017-10-25T15:31:49.230Z,57.02
2017-10-25T15:34:15.595Z,57.01
2017-10-25T15:36:42.804Z,57.35
2017-10-25T15:39:09.293Z,57.32
2017-10-25T15:41:35.867Z,57.53
2017-10-25T15:44:02.514Z,58.01
2017-10-25T15:46:28.889Z,57.90
2017-10-25T15:48:55.390Z,57.96
2017-10-25T15:51:21.837Z,58.20
2017-10-25T15:53:48.323Z,58.73
2017-10-25T15:56:15.516Z,59.08
2017-10-25T15:58:42.080Z,59.93
2017-10-25T16:01:08.706Z,60.57
2017-10-25T16:03:35.138Z,60.73
2017-10-25T16:06:01.525Z,61.15
2017-10-25T16:08:29.736Z,61.46
2017-10-25T16:10:56.175Z,61.49
2017-10-25T16:13:23.447Z,61.54
2017-10-25T16:15:50.666Z,61.52
2017-10-25T16:18:17.199Z,61.38
2017-10-25T16:20:43.715Z,61.02
2017-10-25T16:23:10.106Z,61.28
2017-10-25T16:25:36.553Z,61.53
2017-10-25T16:28:02.962Z,61.71
2017-10-25T16:30:29.289Z,62.08
2017-10-25T16:32:55.799Z,62.52
2017-10-25T16:35:22.200Z,62.82
2017-10-25T16:37:49.413Z,62.98
2017-10-25T16:40:15.878Z,63.01
2017-10-25T16:42:42.462Z,63.19
2017-10-25T16:45:08.862Z,63.19
2017-10-25T16:47:35.982Z,63.00
2017-10-25T16:50:02.558Z,63.09
2017-10-25T16:52:29.285Z,62.90
2017-10-25T16:54:55.831Z,62.73
2017-10-25T16:57:22.921Z,62.55
2017-10-25T16:59:49.529Z,62.20
2017-10-25T17:02:16.005Z,62.29
2017-10-25T17:04:42.431Z,62.33
2017-10-25T17:07:08.803Z,61.78
2017-10-25T17:09:35.239Z,61.83
2017-10-25T17:12:01.675Z,61.84
2017-10-25T17:14:28.877Z,61.86
2017-10-25T17:16:55.236Z,62.18
2017-10-25T17:19:22.519Z,61.83
2017-10-25T17:21:49.121Z,61.67
2017-10-25T17:24:15.482Z,61.83
2017-10-25T17:26:42.065Z,61.81
2017-10-25T17:29:08.530Z,61.87
2017-10-25T17:31:34.942Z,61.83
2017-10-25T17:34:01.402Z,62.17
2017-10-25T17:36:27.908Z,62.19
2017-10-25T17:38:54.539Z,61.94
2017-10-25T17:41:20.938Z,61.83
2017-10-25T17:43:47.352Z,62.12
2017-10-25T17:46:13.850Z,62.05
2017-10-25T17:48:41.722Z,61.75
2017-10-25T17:51:08.203Z,62.16
2017-10-25T17:53:34.655Z,62.16
2017-10-25T17:56:01.245Z,62.19
2017-10-25T17:58:27.677Z,62.27
2017-10-25T18:00:54.654Z,62.52
2017-10-25T18:03:21.028Z,62.27
2017-10-25T18:05:47.460Z,62.02
2017-10-25T18:08:14.078Z,62.21
2017-10-25T18:10:40.499Z,62.27
2017-10-25T18:13:06.925Z,62.07
2017-10-25T18:15:34.038Z,61.78
2017-10-25T18:18:00.893Z,62.29
2017-10-25T18:20:27.458Z,61.87
2017-10-25T18:22:53.854Z,61.22
2017-10-25T18:25:20.237Z,61.25
2017-10-25T18:27:46.684Z,60.86
2017-10-25T18:30:14.127Z,60.98
2017-10-25T18:32:42.479Z,61.00
2017-10-25T18:35:08.818Z,61.17
2017-10-25T18:37:35.803Z,61.01
2017-10-25T18:40:02.259Z,60.24
2017-10-25T18:42:28.589Z,60.77
2017-10-25T18:44:55.035Z,60.89
2017-10-25T18:47:21.668Z,61.17
2017-10-25T18:49:48.201Z,61.38
2017-10-25T18:52:22.467Z,60.89
2017-10-25T18:54:50.489Z,61.36
2017-10-25T18:57:16.927Z,62.00
2017-10-25T18:59:43.394Z,61.93
2017-10-25T19:02:09.716Z,63.57
2017-10-25T19:04:36.367Z,63.49
2017-10-25T19:07:04.982Z,63.90
2017-10-25T19:09:31.348Z,63.58
2017-10-25T19:11:57.787Z,63.31
2017-10-25T19:14:24.296Z,65.06
2017-10-25T19:16:50.817Z,65.82
2017-10-25T19:19:17.291Z,65.12
2017-10-25T19:21:52.461Z,65.71
2017-10-25T19:24:18.840Z,65.77
2017-10-25T19:26:52.291Z,66.69
2017-10-25T19:29:18.780Z,66.47
2017-10-25T19:31:45.253Z,66.51
2017-10-25T19:34:16.975Z,67.12
2017-10-25T19:36:43.378Z,67.93
2017-10-25T19:39:09.856Z,67.76
2017-10-25T19:41:36.325Z,67.39
2017-10-25T19:44:02.793Z,67.54
2017-10-25T19:47:01.251Z,68.15
2017-10-25T19:49:27.694Z,68.02
2017-10-25T19:51:54.046Z,68.30
2017-10-25T19:54:20.376Z,68.20
2017-10-25T19:56:46.752Z,68.88
2017-10-25T19:59:13.253Z,68.40
2017-10-25T20:01:39.647Z,68.17
2017-10-25T20:04:06.016Z,68.03
2017-10-25T20:06:32.513Z,68.25
2017-10-25T20:08:58.930Z,68.23
2017-10-25T20:11:26.290Z,68.55
2017-10-25T20:13:53.465Z,68.41
2017-10-25T20:16:20.010Z,69.01
2017-10-25T20:18:46.503Z,68.35
2017-10-25T20:21:12.917Z,68.66
2017-10-25T20:23:39.355Z,68.25
2017-10-25T20:26:05.856Z,68.54
2017-10-25T20:28:32.810Z,68.18
2017-10-25T20:30:59.298Z,68.48
2017-10-25T20:33:26.226Z,68.87
2017-10-25T20:35:52.652Z,68.94
2017-10-25T20:38:19.855Z,69.24
2017-10-25T20:40:46.208Z,68.88
2017-10-25T20:43:13.288Z,68.46
2017-10-25T20:45:40.435Z,68.20
2017-10-25T20:48:06.834Z,68.06
2017-10-25T20:50:33.290Z,67.72
2017-10-25T20:52:59.687Z,67.53
2017-10-25T20:55:26.040Z,67.42
2017-10-25T20:57:52.441Z,68.24
2017-10-25T21:00:18.777Z,68.55
2017-10-25T21:02:45.102Z,67.79
2017-10-25T21:05:11.564Z,67.04
2017-10-25T21:07:38.037Z,66.94
2017-10-25T21:10:05.123Z,67.33
2017-10-25T21:12:31.442Z,67.30
2017-10-25T21:14:57.950Z,66.87
2017-10-25T21:17:24.508Z,66.36
2017-10-25T21:19:51.801Z,66.80
2017-10-25T21:22:18.326Z,66.22
2017-10-25T21:24:44.751Z,65.90
2017-10-25T21:27:11.199Z,65.94
2017-10-25T21:29:37.569Z,66.58
2017-10-25T21:32:03.968Z,67.00
2017-10-25T21:34:30.421Z,67.44
2017-10-25T21:36:58.219Z,67.34
2017-10-25T21:39:25.319Z,68.58
2017-10-25T21:41:51.714Z,68.71
2017-10-25T21:44:18.111Z,69.09
2017-10-25T21:46:44.660Z,68.61
2017-10-25T21:49:11.829Z,68.06
2017-10-25T21:51:39.245Z,68.44
2017-10-25T21:54:06.566Z,68.77
2017-10-25T21:56:33.174Z,68.73
2017-10-25T21:58:59.618Z,68.56
2017-10-25T22:01:26.090Z,68.13
2017-10-25T22:03:52.572Z,68.28
2017-10-25T22:06:19.838Z,67.83
2017-10-25T22:08:46.958Z,68.50
2017-10-25T22:11:13.361Z,69.36
2017-10-25T22:13:39.853Z,69.08
2017-10-25T22:16:06.997Z,69.25
2017-10-25T22:18:34.117Z,69.29
2017-10-25T22:21:00.557Z,68.48
2017-10-25T22:23:26.957Z,69.32
2017-10-25T22:25:53.383Z,69.46
2017-10-25T22:28:19.742Z,69.25
2017-10-25T22:30:46.148Z,69.29
2017-10-25T22:33:12.503Z,69.04
2017-10-25T22:35:38.879Z,68.51
2017-10-25T22:38:06.373Z,68.84
2017-10-25T22:40:33.659Z,68.91
2017-10-25T22:43:00.104Z,68.39
2017-10-25T22:45:26.458Z,68.32
2017-10-25T22:47:52.924Z,68.25
2017-10-25T22:50:19.376Z,68.65
2017-10-25T22:52:45.934Z,67.98
2017-10-25T22:55:13.299Z,68.48
2017-10-25T22:57:39.644Z,68.42
2017-10-25T23:00:06.160Z,68.19
2017-10-25T23:02:32.600Z,68.43
2017-10-25T23:04:59.772Z,68.25
2017-10-25T23:07:26.111Z,68.44
2017-10-25T23:09:52.497Z,68.41
2017-10-25T23:12:18.832Z,68.51
2017-10-25T23:14:46.085Z,68.93
2017-10-25T23:17:12.515Z,68.86
2017-10-25T23:19:40.001Z,69.23
2017-10-25T23:22:06.376Z,69.00
2017-10-25T23:24:32.850Z,68.58
2017-10-25T23:26:59.291Z,68.35
2017-10-25T23:29:25.630Z,68.32
2017-10-25T23:31:51.990Z,68.74
2017-10-25T23:34:18.474Z,69.21
2017-10-25T23:36:45.642Z,69.66
2017-10-25T23:39:11.983Z,70.06
2017-10-25T23:41:38.362Z,70.24
2017-10-25T23:44:04.909Z,70.51
2017-10-25T23:46:31.372Z,70.24
2017-10-25T23:48:57.827Z,69.93
2017-10-25T23:51:24.156Z,69.79
2017-10-25T23:53:50.547Z,69.34
2017-10-25T23:56:16.935Z,69.52
2017-10-25T23:58:43.345Z,69.04
